Time;durP1;ratioP1;P1;durP2;ratioP2;P2;SDS_P1;SDS_P2;PMS_P1;PMS_P2;Temp;Humidity;BMP_temperature;BMP_pressure;BME280_temperature;BME280_humidity;BME280_pressure;Samples;Min_cycle;Max_cycle;Signal;HPM_P1;HPM_P2
2022/01/20 00:00:21;;;;;;;22.05;12.15;;;;;;;2.87;100.00;99739.06;3582574;80;98918;-82
2022/01/20 00:05:37;;;;;;;21.73;12.28;;;;;;;2.88;100.00;99730.57;3550019;81;98843;-83
2022/01/20 00:26:41;;;;;;;28.00;13.50;;;;;;;2.94;100.00;99727.03;3560291;81;98750;-82
2022/01/20 00:41:36;;;;;;;21.93;12.55;;;;;;;3.00;100.00;99734.61;3570551;81;98862;-84
2022/01/20 00:46:37;;;;;;;23.70;13.47;;;;;;;3.01;100.00;99733.47;3554376;81;31497;-83
2022/01/20 00:51:37;;;;;;;22.90;13.93;;;;;;;3.03;100.00;99735.30;3554367;81;98749;-84
2022/01/20 00:56:38;;;;;;;23.30;12.97;;;;;;;3.04;100.00;99728.72;3563093;81;98657;-83
2022/01/20 01:01:39;;;;;;;23.90;13.83;;;;;;;3.04;100.00;99717.85;3580160;81;98857;-83
2022/01/20 01:07:16;;;;;;;23.83;13.23;;;;;;;3.06;100.00;99723.72;3583444;81;99298;-83
2022/01/20 01:12:05;;;;;;;25.70;13.68;;;;;;;3.06;100.00;99711.48;3578769;81;98902;-84
2022/01/20 01:27:14;;;;;;;21.95;12.70;;;;;;;3.05;100.00;99694.97;3590073;81;98649;-83
2022/01/20 01:32:18;;;;;;;21.50;12.40;;;;;;;3.05;100.00;99690.89;3577043;81;98863;-83
2022/01/20 01:42:43;;;;;;;23.15;12.20;;;;;;;3.08;100.00;99677.98;3570234;81;98808;-83
2022/01/20 01:47:37;;;;;;;19.98;11.28;;;;;;;3.11;100.00;99674.55;3577959;81;98907;-83
2022/01/20 01:52:38;;;;;;;23.87;11.80;;;;;;;3.12;100.00;99667.97;3582392;81;98924;-84
2022/01/20 01:57:39;;;;;;;22.17;11.67;;;;;;;3.13;100.00;99667.42;3568637;81;98625;-84
2022/01/20 02:02:42;;;;;;;18.77;10.90;;;;;;;3.15;100.00;99655.62;3538758;81;98861;-83
2022/01/20 02:18:48;;;;;;;14.33;7.03;;;;;;;3.17;100.00;99666.95;3548860;81;98663;-83
2022/01/20 02:23:26;;;;;;;12.82;5.72;;;;;;;3.15;100.00;99665.94;3552634;81;98844;-83
2022/01/20 02:28:27;;;;;;;13.10;5.90;;;;;;;3.15;100.00;99663.77;3567219;81;98528;-83
2022/01/20 02:33:30;;;;;;;12.17;5.10;;;;;;;3.10;100.00;99652.59;3542516;81;99107;-81
2022/01/20 02:38:39;;;;;;;11.25;4.67;;;;;;;3.06;100.00;99650.92;3554388;81;98692;-83
2022/01/20 02:48:57;;;;;;;10.45;3.80;;;;;;;2.98;100.00;99658.08;3528910;81;98699;-83
2022/01/20 02:53:58;;;;;;;8.20;2.50;;;;;;;2.92;100.00;99653.22;3535055;81;99012;-83
2022/01/20 02:58:58;;;;;;;11.47;2.57;;;;;;;2.85;100.00;99660.59;3574787;81;98535;-83
2022/01/20 03:04:00;;;;;;;9.60;2.67;;;;;;;2.79;100.00;99670.70;3562462;81;98985;-83
2022/01/20 03:09:01;;;;;;;15.97;3.27;;;;;;;2.75;100.00;99667.09;3557076;81;98301;-83
2022/01/20 03:14:02;;;;;;;10.37;2.80;;;;;;;2.70;98.78;99645.03;3564184;81;98709;-82
2022/01/20 03:19:03;;;;;;;14.10;2.30;;;;;;;2.67;98.71;99634.07;3558160;81;98483;-82
2022/01/20 03:24:06;;;;;;;9.63;2.67;;;;;;;2.68;99.08;99639.14;3551468;81;98461;-83
2022/01/20 03:29:09;;;;;;;10.33;2.07;;;;;;;2.67;99.07;99639.50;3563305;81;98273;-82
2022/01/20 03:34:10;;;;;;;13.48;2.33;;;;;;;2.69;99.22;99646.14;3567959;81;98238;-82
2022/01/20 03:39:11;;;;;;;11.83;2.80;;;;;;;2.67;98.52;99642.99;3549321;81;98459;-83
2022/01/20 03:44:12;;;;;;;11.20;3.40;;;;;;;2.67;99.08;99640.27;3565127;81;98524;-82
2022/01/20 03:49:27;;;;;;;15.60;2.97;;;;;;;2.69;99.79;99651.58;3558620;81;98451;-82
2022/01/20 03:54:17;;;;;;;9.40;2.27;;;;;;;2.67;98.72;99645.70;3562704;81;98439;-83
2022/01/20 03:59:17;;;;;;;11.63;2.55;;;;;;;2.65;98.00;99664.28;3563954;81;98234;-83
2022/01/20 04:04:18;;;;;;;7.87;2.00;;;;;;;2.59;96.30;99660.23;3562696;81;31395;-84
2022/01/20 04:09:19;;;;;;;8.70;2.37;;;;;;;2.51;95.19;99650.85;3554062;81;98411;-83
2022/01/20 04:14:23;;;;;;;13.25;2.65;;;;;;;2.38;92.46;99641.92;3556924;81;98426;-84
2022/01/20 04:19:26;;;;;;;11.33;1.35;;;;;;;2.34;92.09;99661.94;3564616;81;98530;-83
2022/01/20 04:24:28;;;;;;;12.70;2.00;;;;;;;2.30;93.06;99659.70;3568058;81;98467;-84
2022/01/20 04:29:29;;;;;;;18.57;2.55;;;;;;;2.28;90.87;99655.16;3558194;81;98863;-83
2022/01/20 04:34:30;;;;;;;8.77;2.57;;;;;;;2.26;91.59;99616.16;3559841;81;26147;-82
2022/01/20 04:39:34;;;;;;;12.10;3.07;;;;;;;2.22;91.05;99634.81;3547744;81;98263;-82
2022/01/20 04:44:50;;;;;;;12.85;2.22;;;;;;;2.17;90.51;99639.11;3567315;81;98324;-82
2022/01/20 05:00:10;;;;;;;12.78;2.00;;;;;;;1.98;91.30;99622.03;3509291;82;98991;-82
2022/01/20 05:05:11;;;;;;;10.50;1.80;;;;;;;1.91;91.41;99640.03;3520578;82;33118;-82
2022/01/20 05:10:13;;;;;;;16.90;3.83;;;;;;;1.86;91.99;99632.89;3512028;81;98566;-82
2022/01/20 05:15:14;;;;;;;11.30;1.73;;;;;;;1.84;92.18;99643.85;3514313;82;98288;-82
2022/01/20 05:20:15;;;;;;;20.07;2.87;;;;;;;1.82;92.18;99608.95;3517129;81;98901;-83
2022/01/20 05:25:16;;;;;;;8.17;1.90;;;;;;;1.83;92.26;99612.44;3524276;82;98566;-83
2022/01/20 05:30:17;;;;;;;9.03;1.37;;;;;;;1.83;91.80;99598.32;3512134;82;98478;-82
2022/01/20 05:35:18;;;;;;;8.67;1.83;;;;;;;1.87;91.61;99598.42;3516274;82;98313;-83
2022/01/20 05:40:20;;;;;;;20.07;3.50;;;;;;;1.91;90.99;99587.13;3514152;82;98238;-85
2022/01/20 05:45:22;;;;;;;10.67;2.83;;;;;;;1.94;91.13;99595.94;3525702;82;98401;-82
2022/01/20 05:50:23;;;;;;;14.67;2.50;;;;;;;1.91;93.51;99633.25;3494586;82;98972;-83
2022/01/20 05:55:24;;;;;;;12.18;2.55;;;;;;;1.70;92.86;99635.27;3517402;82;98461;-82
2022/01/20 06:00:27;;;;;;;10.87;2.20;;;;;;;1.48;90.86;99655.44;3515467;82;99000;-83
2022/01/20 06:05:29;;;;;;;5.23;0.97;;;;;;;1.33;90.73;99658.00;3518120;82;99047;-82
2022/01/20 06:10:31;;;;;;;3.75;1.10;;;;;;;1.22;88.78;99702.91;3521745;82;98372;-82
2022/01/20 06:15:32;;;;;;;5.28;0.93;;;;;;;1.11;88.39;99712.57;3518353;82;98434;-83
2022/01/20 06:20:34;;;;;;;6.57;1.10;;;;;;;0.99;88.60;99683.49;3515208;82;98526;-82
2022/01/20 06:25:35;;;;;;;5.17;1.40;;;;;;;0.90;88.50;99668.44;3516772;82;98268;-82
2022/01/20 06:30:37;;;;;;;11.50;1.50;;;;;;;0.84;87.98;99656.23;3512844;82;98385;-82
2022/01/20 06:35:38;;;;;;;10.08;2.20;;;;;;;0.80;88.53;99645.81;3510539;82;98519;-82
2022/01/20 06:40:39;;;;;;;13.65;1.90;;;;;;;0.74;89.39;99647.95;3514678;82;98334;-84
2022/01/20 06:45:40;;;;;;;10.23;1.80;;;;;;;0.70;89.79;99641.60;3515177;81;97567;-83
2022/01/20 06:50:41;;;;;;;8.10;1.93;;;;;;;0.61;90.06;99670.65;3540044;81;98673;-83
2022/01/20 06:55:42;;;;;;;7.53;2.13;;;;;;;0.51;89.94;99646.67;3556004;80;98805;-83
2022/01/20 07:00:43;;;;;;;11.53;2.80;;;;;;;0.44;90.08;99655.11;3599564;81;98699;-83
2022/01/20 07:05:43;;;;;;;7.80;1.70;;;;;;;0.35;90.34;99652.45;3576107;81;98949;-82
2022/01/20 07:10:44;;;;;;;5.97;1.70;;;;;;;0.30;89.93;99657.25;3560917;80;98353;-82
2022/01/20 07:15:45;;;;;;;10.77;3.30;;;;;;;0.25;89.96;99646.07;3576911;81;98053;-83
2022/01/20 07:20:46;;;;;;;9.60;1.43;;;;;;;0.21;89.97;99646.48;3562478;81;98793;-84
2022/01/20 07:25:47;;;;;;;11.05;2.25;;;;;;;0.19;89.67;99628.99;3566149;80;98760;-87
2022/01/20 07:30:48;;;;;;;9.77;1.53;;;;;;;0.14;89.42;99625.92;3550061;81;98475;-85
2022/01/20 07:35:49;;;;;;;6.37;1.50;;;;;;;0.11;89.14;99648.78;3559464;81;98550;-85
2022/01/20 07:40:50;;;;;;;8.47;1.80;;;;;;;0.08;89.28;99650.78;3558721;80;98463;-86
2022/01/20 07:45:51;;;;;;;13.03;3.03;;;;;;;0.08;88.24;99655.64;3564742;80;98478;-85
2022/01/20 07:50:51;;;;;;;11.33;2.87;;;;;;;0.13;88.03;99651.95;3566277;81;98517;-85
2022/01/20 07:55:52;;;;;;;9.67;2.10;;;;;;;0.18;88.24;99661.23;3568488;81;98476;-83
2022/01/20 08:00:53;;;;;;;9.60;2.30;;;;;;;0.23;87.41;99677.28;3555728;81;98260;-85
2022/01/20 08:05:54;;;;;;;11.88;2.80;;;;;;;0.29;87.98;99688.92;3565643;81;98311;-85
2022/01/20 08:10:55;;;;;;;12.60;2.50;;;;;;;0.34;87.38;99711.73;3566871;80;98337;-85
2022/01/20 08:15:56;;;;;;;12.77;2.33;;;;;;;0.38;87.36;99706.45;3580474;81;98328;-85
2022/01/20 08:20:56;;;;;;;11.03;1.70;;;;;;;0.43;87.39;99714.39;3557793;81;98527;-87
2022/01/20 08:25:57;;;;;;;8.03;2.70;;;;;;;0.45;87.55;99713.53;3584595;81;98588;-84
2022/01/20 08:30:58;;;;;;;8.73;2.00;;;;;;;0.45;87.63;99708.89;3566849;81;98342;-84
2022/01/20 08:36:00;;;;;;;6.93;1.63;;;;;;;0.44;87.78;99729.54;3575875;81;98356;-83
2022/01/20 08:41:01;;;;;;;9.13;1.80;;;;;;;0.42;87.03;99735.27;3568926;81;98360;-84
2022/01/20 08:46:02;;;;;;;13.27;2.77;;;;;;;0.42;87.97;99743.39;3574578;81;98365;-83
2022/01/20 08:51:05;;;;;;;22.73;4.57;;;;;;;0.43;87.68;99743.63;3558266;80;98466;-86
2022/01/20 08:56:06;;;;;;;27.43;9.23;;;;;;;0.42;87.04;99742.59;3565304;81;98583;-84
2022/01/20 09:01:07;;;;;;;26.07;7.67;;;;;;;0.40;87.37;99755.08;3556235;80;98512;-84
2022/01/20 09:06:08;;;;;;;37.27;8.73;;;;;;;0.39;86.87;99756.79;3563462;80;99092;-83
2022/01/20 09:11:19;;;;;;;14.80;3.83;;;;;;;0.37;86.89;99762.52;3562997;81;98473;-84
2022/01/20 09:16:12;;;;;;;26.73;7.63;;;;;;;0.43;86.61;99759.05;3564809;81;98307;-83
2022/01/20 09:21:13;;;;;;;23.67;7.20;;;;;;;0.75;87.60;99760.56;3555992;81;98472;-85
2022/01/20 09:26:14;;;;;;;30.43;7.27;;;;;;;1.08;87.32;99774.98;3567054;81;98549;-84
2022/01/20 09:31:26;;;;;;;17.60;4.87;;;;;;;1.23;86.29;99773.05;3557382;81;98590;-84
2022/01/20 09:36:27;;;;;;;11.40;2.45;;;;;;;1.27;85.14;99782.08;3564530;81;98494;-84
2022/01/20 09:41:28;;;;;;;8.27;2.00;;;;;;;1.52;85.30;99789.22;3556985;81;98532;-84
2022/01/20 09:46:29;;;;;;;10.60;2.97;;;;;;;1.72;83.33;99816.08;3594827;81;32333;-86
2022/01/20 09:51:30;;;;;;;9.70;2.80;;;;;;;1.84;82.52;99818.28;3577966;80;98480;-84
2022/01/20 09:56:32;;;;;;;11.37;2.73;;;;;;;1.85;82.84;99813.08;3588001;80;98534;-85
2022/01/20 10:01:44;;;;;;;11.77;3.03;;;;;;;1.86;81.87;99822.02;3585112;81;98531;-85
2022/01/20 10:07:06;;;;;;;8.50;1.57;;;;;;;1.80;81.75;99806.50;3584932;81;98889;-86
2022/01/20 10:12:10;;;;;;;7.78;2.05;;;;;;;1.74;78.88;99790.20;3579724;81;98390;-86
2022/01/20 10:17:24;;;;;;;7.40;2.15;;;;;;;1.74;80.36;99802.41;3590718;80;35344;-84
2022/01/20 10:22:25;;;;;;;9.83;2.10;;;;;;;1.68;78.76;99803.75;3573022;81;98292;-85
2022/01/20 10:27:26;;;;;;;15.47;4.43;;;;;;;1.63;79.91;99809.38;3594984;81;97423;-86
2022/01/20 10:32:40;;;;;;;20.48;6.47;;;;;;;1.62;78.18;99806.98;3578402;81;98513;-85
2022/01/20 10:37:57;;;;;;;13.28;3.30;;;;;;;1.60;78.96;99778.84;3565291;81;98554;-85
2022/01/20 10:42:56;;;;;;;13.62;2.72;;;;;;;1.58;76.80;99789.82;3567982;81;98573;-87
2022/01/20 10:48:00;;;;;;;9.63;2.47;;;;;;;1.63;78.31;99782.80;3566706;81;98577;-87
2022/01/20 10:53:01;;;;;;;10.32;2.37;;;;;;;1.67;75.14;99775.59;3585927;80;98071;-86
2022/01/20 10:58:22;;;;;;;8.87;1.90;;;;;;;1.59;76.22;99786.75;3564677;81;98363;-86
2022/01/20 11:03:28;;;;;;;10.95;3.77;;;;;;;1.44;78.14;99786.58;3540126;80;97442;-86
2022/01/20 11:08:29;;;;;;;13.18;2.33;;;;;;;1.34;79.47;99791.05;3536573;81;98612;-90
2022/01/20 11:13:30;;;;;;;11.77;3.90;;;;;;;1.22;80.98;99791.77;3546589;82;98804;-85
2022/01/20 11:18:31;;;;;;;10.70;2.30;;;;;;;1.02;82.56;99788.50;3544543;81;98633;-84
2022/01/20 11:23:41;;;;;;;10.93;3.07;;;;;;;1.01;83.76;99784.21;3547525;81;99087;-85
2022/01/20 11:28:58;;;;;;;20.65;5.42;;;;;;;1.05;83.04;99770.22;3542308;81;98323;-84
2022/01/20 11:33:59;;;;;;;11.83;2.02;;;;;;;1.10;82.72;99759.19;3555400;81;98352;-84
2022/01/20 11:39:04;;;;;;;10.30;3.63;;;;;;;1.18;81.85;99761.59;3549534;81;98413;-84
2022/01/20 11:44:13;;;;;;;8.93;2.27;;;;;;;1.22;82.17;99778.21;3543268;81;98986;-85
2022/01/20 11:49:16;;;;;;;11.05;3.70;;;;;;;1.26;82.08;99767.53;3531916;81;98379;-85
2022/01/20 11:54:31;;;;;;;13.03;3.30;;;;;;;1.30;81.11;99773.84;3564833;81;98500;-85
2022/01/20 11:59:57;;;;;;;9.43;2.65;;;;;;;1.42;81.25;99771.22;3558094;81;98824;-87
2022/01/20 12:05:00;;;;;;;9.45;2.87;;;;;;;1.48;79.56;99765.82;3571332;81;34579;-84
2022/01/20 12:10:14;;;;;;;15.18;3.62;;;;;;;1.51;80.39;99774.63;3563874;81;98373;-87
2022/01/20 12:15:20;;;;;;;9.20;2.75;;;;;;;1.48;79.29;99772.02;3564257;81;98498;-83
2022/01/20 12:20:24;;;;;;;11.47;2.20;;;;;;;1.45;79.60;99774.61;3562325;81;99073;-86
2022/01/20 12:25:29;;;;;;;13.30;2.95;;;;;;;1.37;79.04;99769.48;3571473;81;98460;-85
2022/01/20 12:30:31;;;;;;;14.55;3.02;;;;;;;1.37;79.77;99755.16;3551243;80;98477;-85
2022/01/20 12:35:50;;;;;;;12.65;2.92;;;;;;;1.41;79.00;99760.93;3576194;81;98471;-86
2022/01/20 12:41:10;;;;;;;20.32;2.10;;;;;;;1.47;77.00;99761.50;3573311;81;98764;-83
2022/01/20 12:46:25;;;;;;;10.88;2.60;;;;;;;1.47;77.19;99762.30;3566248;81;97773;-88
2022/01/20 12:51:42;;;;;;;7.25;2.00;;;;;;;1.49;77.95;99766.05;3576942;80;98762;-87
2022/01/20 12:56:47;;;;;;;13.48;3.10;;;;;;;1.52;77.27;99778.92;3558268;80;98318;-86
2022/01/20 13:01:49;;;;;;;11.10;3.35;;;;;;;1.58;78.18;99784.39;3549188;81;98613;-85
2022/01/20 13:07:01;;;;;;;11.10;3.12;;;;;;;1.60;77.80;99803.83;3546131;81;98532;-85
2022/01/20 13:11:59;;;;;;;12.58;4.15;;;;;;;1.53;78.93;99808.42;3542747;82;98920;-87
2022/01/20 13:17:01;;;;;;;15.10;3.92;;;;;;;1.46;79.01;99805.46;3549129;82;34677;-84
2022/01/20 13:22:06;;;;;;;8.20;2.47;;;;;;;1.46;78.26;99816.30;3514657;82;98389;-84
2022/01/20 13:27:12;;;;;;;9.70;2.10;;;;;;;1.52;77.97;99834.51;3553227;81;98097;-85
2022/01/20 13:32:14;;;;;;;;;;;;;;;1.54;76.79;99826.85;3547181;81;98621;-85
2022/01/20 13:37:15;;;;;;;16.27;2.80;;;;;;;1.55;76.32;99845.51;3555902;81;84361;-85
2022/01/20 13:42:45;;;;;;;10.07;2.00;;;;;;;1.56;76.79;99860.65;3546421;81;99010;-85
2022/01/20 13:48:00;;;;;;;12.53;3.12;;;;;;;1.53;78.32;99870.02;3554637;81;98485;-84
2022/01/20 13:53:14;;;;;;;11.63;3.07;;;;;;;1.46;79.27;99875.95;3551716;81;98359;-85
2022/01/20 13:58:31;;;;;;;12.80;3.22;;;;;;;1.42;80.07;99892.64;3548284;81;98495;-84
2022/01/20 14:03:32;;;;;;;8.83;2.83;;;;;;;1.36;81.17;99908.06;3534989;81;98779;-84
2022/01/20 14:08:36;;;;;;;13.03;4.50;;;;;;;1.32;82.83;99901.73;3551759;81;98795;-84
2022/01/20 14:13:36;;;;;;;12.55;2.27;;;;;;;1.32;83.58;99905.22;3559816;81;98597;-84
2022/01/20 14:18:45;;;;;;;8.83;2.07;;;;;;;1.32;83.19;99893.02;3555148;81;98907;-85
2022/01/20 14:23:47;;;;;;;8.43;2.50;;;;;;;1.37;82.93;99890.70;3568343;81;97541;-85
2022/01/20 14:28:48;;;;;;;11.70;2.70;;;;;;;1.40;83.45;99896.80;3550914;81;98400;-84
2022/01/20 14:33:49;;;;;;;14.10;4.93;;;;;;;1.42;83.49;99902.70;3566292;81;98339;-85
2022/01/20 14:38:50;;;;;;;11.43;3.00;;;;;;;1.45;82.73;99906.91;3543325;81;98531;-85
2022/01/20 14:43:51;;;;;;;9.23;2.73;;;;;;;1.46;82.74;99915.27;3564062;81;98559;-85
2022/01/20 14:48:52;;;;;;;14.23;3.70;;;;;;;1.46;82.36;99920.69;3582695;81;98337;-84
2022/01/20 14:53:53;;;;;;;14.10;4.30;;;;;;;1.46;82.28;99926.66;3555147;81;98473;-86
2022/01/20 14:58:54;;;;;;;12.83;3.20;;;;;;;1.45;81.62;99931.30;3566639;81;98443;-84
2022/01/20 15:03:55;;;;;;;11.67;3.37;;;;;;;1.46;81.78;99942.38;3572648;81;98424;-84
2022/01/20 15:08:56;;;;;;;10.47;1.97;;;;;;;1.45;80.16;99966.55;3559658;80;98682;-84
2022/01/20 15:13:58;;;;;;;5.43;1.57;;;;;;;1.29;83.07;99988.56;3584545;81;98577;-87
2022/01/20 15:19:00;;;;;;;14.13;2.50;;;;;;;1.02;84.52;99999.02;3589220;81;98453;-83
2022/01/20 15:24:01;;;;;;;7.72;2.90;;;;;;;0.80;86.38;100013.59;3571860;81;99037;-89
2022/01/20 15:29:04;;;;;;;13.00;4.87;;;;;;;0.66;88.33;100022.45;3573528;81;98732;-85
2022/01/20 15:34:08;;;;;;;10.27;3.47;;;;;;;0.51;89.50;100012.70;3565151;81;98788;-84
2022/01/20 15:39:11;;;;;;;9.35;3.02;;;;;;;0.45;89.78;100008.56;3561809;81;98806;-84
2022/01/20 15:44:11;;;;;;;8.58;2.30;;;;;;;0.47;89.44;100008.48;3580308;81;98576;-84
2022/01/20 15:49:13;;;;;;;13.80;2.80;;;;;;;0.49;88.82;100015.72;3585456;81;98448;-84
2022/01/20 15:54:14;;;;;;;8.73;2.80;;;;;;;0.50;88.34;100017.30;3567041;81;98631;-84
2022/01/20 15:59:15;;;;;;;8.57;1.87;;;;;;;0.49;87.65;100017.61;3575789;81;98554;-84
2022/01/20 16:04:18;;;;;;;13.70;2.83;;;;;;;0.50;86.91;100017.88;3565292;81;98394;-86
2022/01/20 16:09:19;;;;;;;10.18;2.55;;;;;;;0.51;86.26;100033.78;3563442;81;98868;-85
2022/01/20 16:14:20;;;;;;;12.20;2.83;;;;;;;0.51;86.69;100034.35;3556607;80;99373;-85
2022/01/20 16:19:21;;;;;;;19.57;3.63;;;;;;;0.48;86.49;100043.91;3565341;81;98688;-85
2022/01/20 16:24:23;;;;;;;16.40;3.57;;;;;;;0.43;86.51;100035.14;3565074;80;98626;-85
2022/01/20 16:29:27;;;;;;;10.27;2.63;;;;;;;0.37;86.72;100046.70;3570624;81;98721;-85
2022/01/20 16:34:28;;;;;;;11.15;2.40;;;;;;;0.30;86.87;100061.82;3581054;81;98487;-86
2022/01/20 16:39:29;;;;;;;18.20;7.20;;;;;;;0.24;86.85;100061.73;3552152;81;98910;-84
2022/01/20 16:44:29;;;;;;;16.43;8.23;;;;;;;0.17;87.00;100066.27;3561979;81;98812;-85
2022/01/20 16:49:34;;;;;;;14.57;3.20;;;;;;;0.10;86.71;100071.36;3559889;81;98696;-85
2022/01/20 16:54:33;;;;;;;8.30;2.40;;;;;;;0.05;86.30;100076.11;3563228;81;98574;-84
2022/01/20 16:59:34;;;;;;;5.73;2.00;;;;;;;0.01;86.28;100079.22;3557090;81;98485;-84
2022/01/20 17:04:35;;;;;;;9.60;2.37;;;;;;;-0.22;85.75;100087.75;3572393;81;32875;-85
2022/01/20 17:09:36;;;;;;;13.67;2.90;;;;;;;-0.22;85.75;100087.75;3569393;80;98622;-85
2022/01/20 17:14:37;;;;;;;8.10;2.60;;;;;;;-0.18;85.68;100118.47;3564421;81;99228;-85
2022/01/20 17:19:39;;;;;;;10.10;2.70;;;;;;;-0.24;85.41;100128.63;3547340;81;98987;-86
2022/01/20 17:24:40;;;;;;;14.73;3.40;;;;;;;-0.32;85.03;100132.88;3564666;81;99373;-86
2022/01/20 17:29:43;;;;;;;13.60;3.80;;;;;;;-0.38;84.90;100129.30;3551285;81;98937;-86
2022/01/20 17:35:33;;;;;;;13.90;3.00;;;;;;;-0.43;84.79;100136.73;3554661;81;32457;-86
2022/01/20 17:40:36;;;;;;;10.80;3.10;;;;;;;-0.49;84.61;100154.20;3550592;81;98734;-85
2022/01/20 17:45:38;;;;;;;9.80;2.50;;;;;;;-0.59;84.57;100159.32;3559018;81;98762;-85
2022/01/20 17:50:40;;;;;;;8.83;1.90;;;;;;;-0.64;84.77;100164.05;3551499;81;99049;-84
2022/01/20 17:55:41;;;;;;;17.75;6.20;;;;;;;-0.70;84.93;100167.45;3563065;81;98743;-84
2022/01/20 18:00:42;;;;;;;21.53;6.43;;;;;;;-0.75;85.03;100176.22;3555021;81;98985;-85
2022/01/20 18:05:43;;;;;;;20.50;4.87;;;;;;;-0.83;85.08;100195.31;3541739;81;98979;-85
2022/01/20 18:10:50;;;;;;;21.77;5.10;;;;;;;-0.89;85.58;100190.36;3537620;80;99114;-87
2022/01/20 18:15:50;;;;;;;18.47;5.23;;;;;;;-0.95;86.16;100195.07;3545373;81;98926;-86
2022/01/20 18:20:51;;;;;;;26.55;7.25;;;;;;;-1.02;86.76;100207.40;3543624;81;99109;-85
2022/01/20 18:25:52;;;;;;;23.77;7.23;;;;;;;-1.09;87.02;100202.98;3549723;81;99019;-84
2022/01/20 18:30:54;;;;;;;23.63;5.83;;;;;;;-1.15;87.42;100204.98;3536726;81;99024;-83
2022/01/20 18:35:55;;;;;;;18.30;5.57;;;;;;;-1.21;87.85;100207.56;3538516;81;99072;-84
2022/01/20 18:40:56;;;;;;;25.23;7.93;;;;;;;-1.24;88.08;100211.42;3539636;81;99020;-84
2022/01/20 18:45:59;;;;;;;15.43;5.57;;;;;;;-1.28;88.45;100215.29;3548377;80;98902;-85
2022/01/20 18:51:00;;;;;;;23.70;6.47;;;;;;;-1.33;88.70;100213.23;3545368;81;98972;-85
2022/01/20 18:56:03;;;;;;;18.87;6.47;;;;;;;-1.38;89.08;100215.51;3546771;81;99008;-85
2022/01/20 19:01:04;;;;;;;13.48;3.75;;;;;;;-1.42;89.44;100221.25;3545102;81;98990;-84
2022/01/20 19:06:06;;;;;;;13.95;5.90;;;;;;;-1.44;89.72;100224.00;3565346;81;99109;-84
2022/01/20 19:11:08;;;;;;;12.07;4.22;;;;;;;-1.49;90.00;100233.59;3557766;81;98841;-83
2022/01/20 19:16:10;;;;;;;14.85;6.60;;;;;;;-1.55;90.27;100226.67;3566608;81;98946;-83
2022/01/20 19:21:11;;;;;;;13.22;3.92;;;;;;;-1.56;90.50;100243.44;3569531;81;99129;-84
2022/01/20 19:26:12;;;;;;;13.13;5.10;;;;;;;-1.57;90.85;100253.17;3577035;81;99143;-83
2022/01/20 19:31:14;;;;;;;11.33;2.70;;;;;;;-1.60;90.90;100255.14;3580429;81;99069;-84
2022/01/20 19:36:15;;;;;;;12.80;2.80;;;;;;;-1.63;91.39;100259.77;3562103;80;99197;-83
2022/01/20 19:41:16;;;;;;;13.87;5.57;;;;;;;-1.67;91.39;100262.27;3559706;81;98969;-83
2022/01/20 19:46:17;;;;;;;11.57;3.77;;;;;;;-1.67;91.38;100259.58;3547736;81;98935;-84
2022/01/20 19:51:18;;;;;;;11.38;3.50;;;;;;;-1.68;91.63;100272.82;3553045;80;99115;-84
2022/01/20 19:56:19;;;;;;;10.07;3.57;;;;;;;-1.68;91.62;100287.66;3550906;81;99046;-84
2022/01/20 20:01:20;;;;;;;12.23;2.93;;;;;;;-1.70;91.89;100291.75;3550863;81;98965;-83
2022/01/20 20:06:21;;;;;;;12.40;3.70;;;;;;;-1.74;92.09;100295.60;3549994;82;99036;-83
2022/01/20 20:11:23;;;;;;;12.00;3.23;;;;;;;-1.74;92.28;100294.80;3533556;81;98718;-82
2022/01/20 20:16:25;;;;;;;19.00;3.17;;;;;;;-1.76;92.48;100293.73;3544332;82;99229;-83
2022/01/20 20:21:26;;;;;;;10.63;3.00;;;;;;;-1.76;92.69;100297.78;3525501;82;99220;-83
2022/01/20 20:26:29;;;;;;;17.53;6.27;;;;;;;-1.74;93.05;100299.66;3542926;82;99020;-82
2022/01/20 20:31:29;;;;;;;19.43;7.87;;;;;;;-1.77;93.20;100299.42;3515587;82;99002;-83
2022/01/20 20:36:32;;;;;;;11.23;3.60;;;;;;;-1.78;93.26;100311.31;3518717;82;99558;-82
2022/01/20 20:41:35;;;;;;;10.95;3.27;;;;;;;-1.79;93.32;100329.95;3539086;82;99194;-82
2022/01/20 20:46:37;;;;;;;11.08;3.33;;;;;;;-1.82;93.45;100337.27;3552552;82;98674;-82
2022/01/20 20:51:38;;;;;;;7.55;3.20;;;;;;;-1.83;93.49;100344.59;3552801;81;98858;-81
2022/01/20 20:56:39;;;;;;;12.60;3.97;;;;;;;-1.87;93.51;100343.57;3561100;81;98801;-82
2022/01/20 21:01:41;;;;;;;11.27;3.13;;;;;;;-1.88;93.43;100356.81;3576010;80;99075;-82
2022/01/20 21:06:42;;;;;;;11.17;2.70;;;;;;;-1.90;93.76;100355.50;3592042;81;99078;-82
2022/01/20 21:11:43;;;;;;;9.60;4.20;;;;;;;-1.91;93.44;100376.27;3590855;81;99080;-81
2022/01/20 21:16:44;;;;;;;6.57;2.20;;;;;;;-1.93;93.24;100375.77;3580189;80;32399;-81
2022/01/20 21:21:45;;;;;;;7.20;4.13;;;;;;;-1.94;93.15;100390.89;3579149;81;98713;-81
2022/01/20 21:26:46;;;;;;;13.17;5.57;;;;;;;-1.96;93.04;100402.00;3575160;80;98849;-81
2022/01/20 21:31:47;;;;;;;25.30;9.63;;;;;;;-2.00;93.08;100409.06;3568081;81;98965;-81
2022/01/20 21:36:48;;;;;;;25.07;11.47;;;;;;;-2.05;93.01;100406.98;3589036;81;98990;-81
2022/01/20 21:41:50;;;;;;;19.10;7.97;;;;;;;-2.05;92.85;100413.19;3566743;81;99142;-82
2022/01/20 21:46:54;;;;;;;9.60;3.07;;;;;;;-2.07;92.75;100413.23;3572043;81;32390;-81
2022/01/20 21:51:55;;;;;;;9.78;2.20;;;;;;;-2.08;92.57;100415.68;3555816;81;99034;-81
2022/01/20 21:56:56;;;;;;;8.20;2.43;;;;;;;-2.12;92.55;100418.17;3563811;81;98804;-82
2022/01/20 22:01:57;;;;;;;8.83;2.20;;;;;;;-2.13;92.34;100420.58;3565244;81;98654;-82
2022/01/20 22:06:58;;;;;;;5.37;1.70;;;;;;;-2.13;92.40;100427.89;3574012;81;98888;-81
2022/01/20 22:11:59;;;;;;;7.83;2.03;;;;;;;-2.13;92.33;100429.23;3572347;81;99194;-82
2022/01/20 22:17:02;;;;;;;7.53;1.93;;;;;;;-2.15;92.26;100442.19;3555691;81;32311;-82
2022/01/20 22:22:04;;;;;;;11.78;2.80;;;;;;;-2.17;92.17;100449.78;3549052;81;98924;-82
2022/01/20 22:27:05;;;;;;;7.83;2.25;;;;;;;-2.20;92.14;100453.86;3569597;81;98958;-82
2022/01/20 22:32:07;;;;;;;8.43;2.10;;;;;;;-2.22;92.07;100455.23;3560574;81;98913;-82
2022/01/20 22:37:08;;;;;;;8.15;2.67;;;;;;;-2.25;92.02;100462.02;3562871;81;98801;-83
2022/01/20 22:42:11;;;;;;;10.77;2.67;;;;;;;-2.26;91.82;100467.16;3570607;80;98813;-83
2022/01/20 22:47:12;;;;;;;7.33;1.90;;;;;;;-2.30;91.73;100479.61;3571050;81;34702;-82
2022/01/20 22:52:12;;;;;;;10.80;3.33;;;;;;;-2.33;91.66;100479.39;3558460;81;98741;-83
2022/01/20 22:57:14;;;;;;;7.30;2.17;;;;;;;-2.33;91.70;100487.48;3569308;81;98939;-84
2022/01/20 23:02:14;;;;;;;6.37;1.90;;;;;;;-2.35;91.83;100497.19;3557599;81;98957;-83
2022/01/20 23:07:15;;;;;;;12.73;3.05;;;;;;;-2.37;91.82;100501.27;3561757;80;98800;-83
2022/01/20 23:12:17;;;;;;;8.47;1.83;;;;;;;-2.40;91.77;100513.42;3549707;80;99040;-83
2022/01/20 23:17:33;;;;;;;8.33;2.90;;;;;;;-2.42;91.54;100518.84;3563014;81;32174;-84
2022/01/20 23:22:32;;;;;;;5.40;2.33;;;;;;;-2.45;91.37;100519.44;3556985;81;98446;-83
2022/01/20 23:27:34;;;;;;;7.40;1.73;;;;;;;-2.46;91.16;100537.48;3572760;81;98665;-83
2022/01/20 23:32:35;;;;;;;10.45;2.22;;;;;;;-2.49;91.00;100543.47;3534420;81;98860;-84
2022/01/20 23:37:36;;;;;;;7.27;1.90;;;;;;;-2.51;90.74;100537.55;3579311;81;98961;-84
2022/01/20 23:42:49;;;;;;;8.97;2.20;;;;;;;-2.51;90.81;100555.06;3563160;80;98843;-84
2022/01/20 23:53:04;;;;;;;9.13;2.08;;;;;;;-2.56;90.96;100552.45;3565763;81;98435;-84
2022/01/20 23:58:04;;;;;;;11.88;2.77;;;;;;;-2.59;91.31;100565.67;3569488;81;98698;-84
